sensor_id;sensor_type;location;lat;lon;timestamp;pressure;altitude;pressure_sealevel;temperature;humidity
33697;BME280;20031;43.416;23.232;2023-02-26T00:00:06;98566.69;;;9.85;82.83
33697;BME280;20031;43.416;23.232;2023-02-26T00:02:36;98568.28;;;9.86;82.71
33697;BME280;20031;43.416;23.232;2023-02-26T00:05:03;98552.50;;;9.88;82.82
33697;BME280;20031;43.416;23.232;2023-02-26T00:07:28;98551.94;;;9.92;82.33
33697;BME280;20031;43.416;23.232;2023-02-26T00:09:54;98542.97;;;9.95;82.42
33697;BME280;20031;43.416;23.232;2023-02-26T00:12:20;98547.22;;;10.02;82.34
33697;BME280;20031;43.416;23.232;2023-02-26T00:14:46;98527.25;;;10.09;81.80
33697;BME280;20031;43.416;23.232;2023-02-26T00:17:44;98531.50;;;10.17;81.11
33697;BME280;20031;43.416;23.232;2023-02-26T00:20:14;98542.13;;;10.21;80.21
33697;BME280;20031;43.416;23.232;2023-02-26T00:22:41;98527.91;;;10.24;79.83
33697;BME280;20031;43.416;23.232;2023-02-26T00:25:07;98542.97;;;10.35;79.42
33697;BME280;20031;43.416;23.232;2023-02-26T00:27:33;98525.59;;;10.42;78.44
33697;BME280;20031;43.416;23.232;2023-02-26T00:29:59;98536.00;;;10.42;78.13
33697;BME280;20031;43.416;23.232;2023-02-26T00:32:25;98537.81;;;10.48;77.50
33697;BME280;20031;43.416;23.232;2023-02-26T00:34:51;98544.28;;;10.58;76.85
33697;BME280;20031;43.416;23.232;2023-02-26T00:40:45;98521.28;;;10.74;74.25
33697;BME280;20031;43.416;23.232;2023-02-26T00:42:46;98531.34;;;10.84;73.10
33697;BME280;20031;43.416;23.232;2023-02-26T00:45:13;98535.38;;;10.93;71.95
33697;BME280;20031;43.416;23.232;2023-02-26T00:50:32;98489.28;;;11.00;70.30
33697;BME280;20031;43.416;23.232;2023-02-26T00:55:38;98501.75;;;11.62;65.69
33697;BME280;20031;43.416;23.232;2023-02-26T00:58:03;98499.72;;;11.71;64.50
33697;BME280;20031;43.416;23.232;2023-02-26T01:00:29;98512.56;;;11.78;64.30
33697;BME280;20031;43.416;23.232;2023-02-26T01:02:55;98490.25;;;11.82;62.93
33697;BME280;20031;43.416;23.232;2023-02-26T01:05:20;98481.22;;;11.91;61.81
33697;BME280;20031;43.416;23.232;2023-02-26T01:08:19;98489.22;;;11.96;61.49
33697;BME280;20031;43.416;23.232;2023-02-26T01:10:46;98489.84;;;11.98;60.60
33697;BME280;20031;43.416;23.232;2023-02-26T01:13:11;98481.59;;;11.95;59.99
33697;BME280;20031;43.416;23.232;2023-02-26T01:15:37;98485.63;;;11.97;59.52
33697;BME280;20031;43.416;23.232;2023-02-26T01:18:17;98469.13;;;12.03;59.11
33697;BME280;20031;43.416;23.232;2023-02-26T01:21:02;98481.13;;;12.17;58.05
33697;BME280;20031;43.416;23.232;2023-02-26T01:23:32;98475.72;;;12.12;57.59
33697;BME280;20031;43.416;23.232;2023-02-26T01:26:03;98457.25;;;12.14;57.63
33697;BME280;20031;43.416;23.232;2023-02-26T01:28:31;98458.66;;;12.16;57.20
33697;BME280;20031;43.416;23.232;2023-02-26T01:30:58;98465.44;;;12.23;56.83
33697;BME280;20031;43.416;23.232;2023-02-26T01:33:34;98458.63;;;12.23;56.91
33697;BME280;20031;43.416;23.232;2023-02-26T01:36:11;98464.06;;;12.21;56.79
33697;BME280;20031;43.416;23.232;2023-02-26T01:41:42;98461.47;;;12.15;56.85
33697;BME280;20031;43.416;23.232;2023-02-26T01:44:29;98441.00;;;12.12;57.26
33697;BME280;20031;43.416;23.232;2023-02-26T01:47:14;98463.16;;;12.40;55.77
33697;BME280;20031;43.416;23.232;2023-02-26T01:49:41;98458.47;;;13.16;51.57
33697;BME280;20031;43.416;23.232;2023-02-26T01:55:10;98459.97;;;13.30;49.84
33697;BME280;20031;43.416;23.232;2023-02-26T01:57:36;98456.94;;;13.33;49.34
33697;BME280;20031;43.416;23.232;2023-02-26T02:00:03;98463.19;;;13.25;49.59
33697;BME280;20031;43.416;23.232;2023-02-26T02:02:29;98460.66;;;13.19;49.69
33697;BME280;20031;43.416;23.232;2023-02-26T02:04:55;98461.94;;;13.10;49.76
33697;BME280;20031;43.416;23.232;2023-02-26T02:07:20;98463.63;;;12.98;49.72
33697;BME280;20031;43.416;23.232;2023-02-26T02:09:46;98454.66;;;12.88;50.02
33697;BME280;20031;43.416;23.232;2023-02-26T02:12:35;98474.75;;;12.87;50.31
33697;BME280;20031;43.416;23.232;2023-02-26T02:15:15;98476.16;;;12.90;50.36
33697;BME280;20031;43.416;23.232;2023-02-26T02:20:34;98454.59;;;12.64;50.96
33697;BME280;20031;43.416;23.232;2023-02-26T02:29:20;98451.56;;;12.97;49.75
33697;BME280;20031;43.416;23.232;2023-02-26T02:31:54;98468.84;;;12.98;49.01
33697;BME280;20031;43.416;23.232;2023-02-26T02:34:37;98471.13;;;12.88;49.58
33697;BME280;20031;43.416;23.232;2023-02-26T02:37:36;98452.13;;;12.75;49.48
33697;BME280;20031;43.416;23.232;2023-02-26T02:40:08;98469.63;;;12.68;49.94
33697;BME280;20031;43.416;23.232;2023-02-26T02:42:45;98462.47;;;12.57;50.20
33697;BME280;20031;43.416;23.232;2023-02-26T02:45:20;98446.84;;;12.51;50.55
33697;BME280;20031;43.416;23.232;2023-02-26T02:47:53;98447.50;;;12.40;50.67
33697;BME280;20031;43.416;23.232;2023-02-26T02:50:27;98444.69;;;12.35;51.09
33697;BME280;20031;43.416;23.232;2023-02-26T02:53:02;98448.16;;;12.29;50.99
33697;BME280;20031;43.416;23.232;2023-02-26T02:55:34;98452.81;;;12.21;51.62
33697;BME280;20031;43.416;23.232;2023-02-26T02:58:09;98456.88;;;12.10;51.91
33697;BME280;20031;43.416;23.232;2023-02-26T03:00:39;98447.44;;;12.09;52.05
33697;BME280;20031;43.416;23.232;2023-02-26T03:03:20;98439.44;;;12.04;52.47
33697;BME280;20031;43.416;23.232;2023-02-26T03:05:49;98452.06;;;12.01;53.00
33697;BME280;20031;43.416;23.232;2023-02-26T03:08:16;98440.66;;;12.02;52.58
33697;BME280;20031;43.416;23.232;2023-02-26T03:10:44;98466.34;;;11.98;52.77
33697;BME280;20031;43.416;23.232;2023-02-26T03:13:29;98479.41;;;11.92;52.89
33697;BME280;20031;43.416;23.232;2023-02-26T03:18:35;98474.03;;;11.80;53.45
33697;BME280;20031;43.416;23.232;2023-02-26T03:21:21;98451.75;;;11.78;53.87
33697;BME280;20031;43.416;23.232;2023-02-26T03:24:05;98456.19;;;11.77;53.63
33697;BME280;20031;43.416;23.232;2023-02-26T03:26:51;98462.59;;;11.75;53.65
33697;BME280;20031;43.416;23.232;2023-02-26T03:29:27;98467.97;;;11.86;52.79
33697;BME280;20031;43.416;23.232;2023-02-26T03:32:13;98467.81;;;11.81;53.28
33697;BME280;20031;43.416;23.232;2023-02-26T03:34:46;98474.03;;;11.80;53.08
33697;BME280;20031;43.416;23.232;2023-02-26T03:37:19;98487.66;;;11.82;52.85
33697;BME280;20031;43.416;23.232;2023-02-26T03:39:50;98463.59;;;11.80;53.21
33697;BME280;20031;43.416;23.232;2023-02-26T03:42:34;98467.59;;;11.76;52.96
33697;BME280;20031;43.416;23.232;2023-02-26T03:45:22;98491.91;;;11.71;53.34
33697;BME280;20031;43.416;23.232;2023-02-26T03:47:50;98484.66;;;11.72;53.53
33697;BME280;20031;43.416;23.232;2023-02-26T03:50:26;98486.47;;;11.78;53.25
33697;BME280;20031;43.416;23.232;2023-02-26T03:52:54;98494.09;;;11.80;52.85
33697;BME280;20031;43.416;23.232;2023-02-26T03:57:55;98481.06;;;11.80;52.77
33697;BME280;20031;43.416;23.232;2023-02-26T04:00:21;98471.53;;;12.05;52.17
33697;BME280;20031;43.416;23.232;2023-02-26T04:03:03;98496.38;;;12.20;51.26
33697;BME280;20031;43.416;23.232;2023-02-26T04:05:35;98496.34;;;12.26;50.51
33697;BME280;20031;43.416;23.232;2023-02-26T04:08:02;98468.66;;;12.25;50.56
33697;BME280;20031;43.416;23.232;2023-02-26T04:10:56;98453.19;;;12.24;50.45
33697;BME280;20031;43.416;23.232;2023-02-26T04:13:22;98485.75;;;12.59;49.70
33697;BME280;20031;43.416;23.232;2023-02-26T04:15:48;98484.88;;;13.08;47.83
33697;BME280;20031;43.416;23.232;2023-02-26T04:18:13;98486.63;;;13.14;47.12
33697;BME280;20031;43.416;23.232;2023-02-26T04:20:39;98472.97;;;13.12;47.13
33697;BME280;20031;43.416;23.232;2023-02-26T04:23:05;98462.19;;;13.02;47.18
33697;BME280;20031;43.416;23.232;2023-02-26T04:25:30;98473.09;;;12.93;47.43
33697;BME280;20031;43.416;23.232;2023-02-26T04:27:55;98454.31;;;12.78;47.92
33697;BME280;20031;43.416;23.232;2023-02-26T04:30:21;98463.44;;;12.63;48.46
33697;BME280;20031;43.416;23.232;2023-02-26T04:32:46;98458.88;;;12.52;48.85
33697;BME280;20031;43.416;23.232;2023-02-26T04:35:12;98437.06;;;12.40;49.00
33697;BME280;20031;43.416;23.232;2023-02-26T04:37:37;98447.91;;;12.37;49.62
33697;BME280;20031;43.416;23.232;2023-02-26T04:40:03;98436.88;;;12.35;49.57
33697;BME280;20031;43.416;23.232;2023-02-26T04:42:29;98416.25;;;12.27;49.73
33697;BME280;20031;43.416;23.232;2023-02-26T04:44:55;98440.16;;;12.24;50.17
33697;BME280;20031;43.416;23.232;2023-02-26T04:47:20;98436.78;;;12.17;49.95
33697;BME280;20031;43.416;23.232;2023-02-26T04:49:45;98428.59;;;12.07;50.39
33697;BME280;20031;43.416;23.232;2023-02-26T04:52:11;98426.19;;;12.06;50.26
33697;BME280;20031;43.416;23.232;2023-02-26T04:54:36;98432.19;;;12.06;50.24
33697;BME280;20031;43.416;23.232;2023-02-26T04:57:02;98429.78;;;12.11;50.13
33697;BME280;20031;43.416;23.232;2023-02-26T04:59:28;98432.31;;;12.24;49.49
33697;BME280;20031;43.416;23.232;2023-02-26T05:01:53;98418.84;;;12.27;49.38
33697;BME280;20031;43.416;23.232;2023-02-26T05:04:19;98429.22;;;12.40;49.05
33697;BME280;20031;43.416;23.232;2023-02-26T05:06:44;98429.56;;;12.50;48.79
33697;BME280;20031;43.416;23.232;2023-02-26T05:09:10;98416.44;;;12.56;48.64
33697;BME280;20031;43.416;23.232;2023-02-26T05:11:35;98428.91;;;12.61;48.23
33697;BME280;20031;43.416;23.232;2023-02-26T05:14:01;98423.06;;;12.59;48.41
33697;BME280;20031;43.416;23.232;2023-02-26T05:16:26;98427.88;;;12.62;48.54
33697;BME280;20031;43.416;23.232;2023-02-26T05:18:52;98421.50;;;12.58;48.76
33697;BME280;20031;43.416;23.232;2023-02-26T05:21:17;98434.78;;;12.50;49.01
33697;BME280;20031;43.416;23.232;2023-02-26T05:23:43;98431.00;;;12.46;49.31
33697;BME280;20031;43.416;23.232;2023-02-26T05:26:08;98427.63;;;12.39;49.31
33697;BME280;20031;43.416;23.232;2023-02-26T05:28:34;98427.66;;;12.32;49.71
33697;BME280;20031;43.416;23.232;2023-02-26T05:31:00;98438.88;;;12.39;49.78
33697;BME280;20031;43.416;23.232;2023-02-26T05:33:26;98438.03;;;12.45;49.79
33697;BME280;20031;43.416;23.232;2023-02-26T05:35:52;98435.63;;;12.44;49.58
33697;BME280;20031;43.416;23.232;2023-02-26T05:38:17;98446.91;;;12.38;49.68
33697;BME280;20031;43.416;23.232;2023-02-26T05:40:43;98447.91;;;12.37;49.88
33697;BME280;20031;43.416;23.232;2023-02-26T05:43:09;98447.31;;;12.35;49.70
33697;BME280;20031;43.416;23.232;2023-02-26T05:45:34;98441.28;;;12.34;49.96
33697;BME280;20031;43.416;23.232;2023-02-26T05:48:00;98463.13;;;12.46;49.84
33697;BME280;20031;43.416;23.232;2023-02-26T05:50:25;98460.91;;;12.50;49.17
33697;BME280;20031;43.416;23.232;2023-02-26T05:52:51;98444.78;;;12.59;49.15
33697;BME280;20031;43.416;23.232;2023-02-26T05:55:17;98458.41;;;12.68;48.03
33697;BME280;20031;43.416;23.232;2023-02-26T05:57:43;98456.56;;;12.68;48.50
33697;BME280;20031;43.416;23.232;2023-02-26T06:00:09;98444.31;;;12.69;48.64
33697;BME280;20031;43.416;23.232;2023-02-26T06:02:35;98456.38;;;12.63;48.88
33697;BME280;20031;43.416;23.232;2023-02-26T06:05:00;98456.03;;;12.60;48.97
33697;BME280;20031;43.416;23.232;2023-02-26T06:07:26;98464.84;;;12.59;49.07
33697;BME280;20031;43.416;23.232;2023-02-26T06:09:51;98464.28;;;12.57;49.21
33697;BME280;20031;43.416;23.232;2023-02-26T06:12:17;98470.69;;;12.61;49.27
33697;BME280;20031;43.416;23.232;2023-02-26T06:14:43;98470.47;;;12.62;49.47
33697;BME280;20031;43.416;23.232;2023-02-26T06:17:08;98461.81;;;12.62;49.65
33697;BME280;20031;43.416;23.232;2023-02-26T06:19:33;98473.31;;;12.61;49.16
33697;BME280;20031;43.416;23.232;2023-02-26T06:21:59;98455.22;;;12.59;49.82
33697;BME280;20031;43.416;23.232;2023-02-26T06:24:24;98463.06;;;12.59;49.22
33697;BME280;20031;43.416;23.232;2023-02-26T06:26:51;98458.22;;;12.63;49.62
33697;BME280;20031;43.416;23.232;2023-02-26T06:29:16;98451.94;;;12.70;49.57
33697;BME280;20031;43.416;23.232;2023-02-26T06:31:43;98443.47;;;12.74;49.73
33697;BME280;20031;43.416;23.232;2023-02-26T06:34:09;98467.25;;;12.97;48.87
33697;BME280;20031;43.416;23.232;2023-02-26T06:36:35;98457.28;;;13.12;48.66
33697;BME280;20031;43.416;23.232;2023-02-26T06:39:00;98456.44;;;13.18;48.56
33697;BME280;20031;43.416;23.232;2023-02-26T06:41:25;98463.41;;;13.24;48.30
33697;BME280;20031;43.416;23.232;2023-02-26T06:43:51;98459.16;;;13.29;48.25
33697;BME280;20031;43.416;23.232;2023-02-26T06:46:16;98463.72;;;13.34;47.62
33697;BME280;20031;43.416;23.232;2023-02-26T06:48:42;98460.69;;;13.37;47.79
33697;BME280;20031;43.416;23.232;2023-02-26T06:51:07;98451.63;;;13.39;48.11
33697;BME280;20031;43.416;23.232;2023-02-26T06:53:34;98452.56;;;13.45;47.77
33697;BME280;20031;43.416;23.232;2023-02-26T06:55:59;98461.16;;;13.52;47.65
33697;BME280;20031;43.416;23.232;2023-02-26T06:58:25;98437.19;;;13.55;47.87
33697;BME280;20031;43.416;23.232;2023-02-26T07:00:50;98443.91;;;13.69;47.46
33697;BME280;20031;43.416;23.232;2023-02-26T07:03:17;98451.53;;;13.88;47.00
33697;BME280;20031;43.416;23.232;2023-02-26T07:05:44;98435.03;;;14.05;46.56
33697;BME280;20031;43.416;23.232;2023-02-26T07:08:09;98433.50;;;14.33;46.00
33697;BME280;20031;43.416;23.232;2023-02-26T07:10:35;98445.56;;;14.64;44.60
33697;BME280;20031;43.416;23.232;2023-02-26T07:13:01;98425.34;;;14.82;43.66
33697;BME280;20031;43.416;23.232;2023-02-26T07:15:27;98433.34;;;14.98;43.29
33697;BME280;20031;43.416;23.232;2023-02-26T07:17:53;98435.63;;;15.06;43.16
33697;BME280;20031;43.416;23.232;2023-02-26T07:20:19;98446.25;;;15.11;43.25
33697;BME280;20031;43.416;23.232;2023-02-26T07:22:44;98415.41;;;15.36;41.53
33697;BME280;20031;43.416;23.232;2023-02-26T07:25:11;98432.00;;;15.87;39.41
33697;BME280;20031;43.416;23.232;2023-02-26T07:27:37;98438.19;;;16.32;38.05
33697;BME280;20031;43.416;23.232;2023-02-26T07:30:05;98424.75;;;16.56;38.01
33697;BME280;20031;43.416;23.232;2023-02-26T07:32:30;98425.72;;;16.83;37.24
33697;BME280;20031;43.416;23.232;2023-02-26T07:34:56;98410.13;;;17.09;36.55
33697;BME280;20031;43.416;23.232;2023-02-26T07:37:21;98430.41;;;17.41;35.87
33697;BME280;20031;43.416;23.232;2023-02-26T07:39:47;98424.88;;;17.80;34.93
33697;BME280;20031;43.416;23.232;2023-02-26T07:42:12;98422.25;;;18.18;34.07
33697;BME280;20031;43.416;23.232;2023-02-26T07:44:38;98430.00;;;18.50;33.64
33697;BME280;20031;43.416;23.232;2023-02-26T07:47:03;98422.88;;;18.77;32.41
33697;BME280;20031;43.416;23.232;2023-02-26T07:49:29;98421.28;;;19.02;31.60
33697;BME280;20031;43.416;23.232;2023-02-26T07:51:56;98417.75;;;19.23;31.62
33697;BME280;20031;43.416;23.232;2023-02-26T07:54:22;98411.56;;;19.39;30.87
33697;BME280;20031;43.416;23.232;2023-02-26T07:56:47;98402.94;;;19.58;31.29
33697;BME280;20031;43.416;23.232;2023-02-26T07:59:14;98406.25;;;19.85;31.16
33697;BME280;20031;43.416;23.232;2023-02-26T08:01:39;98417.22;;;19.98;30.26
33697;BME280;20031;43.416;23.232;2023-02-26T08:04:05;98399.72;;;19.93;30.01
33697;BME280;20031;43.416;23.232;2023-02-26T08:06:30;98408.25;;;20.04;30.50
33697;BME280;20031;43.416;23.232;2023-02-26T08:08:56;98399.31;;;20.25;30.31
33697;BME280;20031;43.416;23.232;2023-02-26T08:11:21;98388.25;;;20.28;29.64
33697;BME280;20031;43.416;23.232;2023-02-26T08:13:47;98398.59;;;20.40;29.96
33697;BME280;20031;43.416;23.232;2023-02-26T08:16:13;98401.78;;;20.51;29.31
33697;BME280;20031;43.416;23.232;2023-02-26T08:18:38;98397.88;;;20.69;29.70
33697;BME280;20031;43.416;23.232;2023-02-26T08:21:04;98399.75;;;20.78;29.59
33697;BME280;20031;43.416;23.232;2023-02-26T08:23:30;98400.53;;;20.84;29.18
33697;BME280;20031;43.416;23.232;2023-02-26T08:26:05;98405.31;;;20.87;29.11
33697;BME280;20031;43.416;23.232;2023-02-26T08:28:31;98402.91;;;20.85;29.40
33697;BME280;20031;43.416;23.232;2023-02-26T08:30:57;98403.19;;;20.84;28.54
33697;BME280;20031;43.416;23.232;2023-02-26T08:33:23;98391.00;;;20.88;28.67
33697;BME280;20031;43.416;23.232;2023-02-26T08:35:49;98406.88;;;20.98;28.43
33697;BME280;20031;43.416;23.232;2023-02-26T08:38:15;98410.59;;;21.11;28.77
33697;BME280;20031;43.416;23.232;2023-02-26T08:40:41;98416.41;;;21.18;28.16
33697;BME280;20031;43.416;23.232;2023-02-26T08:43:06;98423.59;;;21.18;28.11
33697;BME280;20031;43.416;23.232;2023-02-26T08:45:32;98413.00;;;21.18;28.24
33697;BME280;20031;43.416;23.232;2023-02-26T08:47:57;98412.97;;;21.03;28.56
33697;BME280;20031;43.416;23.232;2023-02-26T08:50:24;98411.91;;;20.94;28.28
33697;BME280;20031;43.416;23.232;2023-02-26T08:52:50;98409.53;;;20.83;28.29
33697;BME280;20031;43.416;23.232;2023-02-26T08:55:15;98408.75;;;20.92;28.28
33697;BME280;20031;43.416;23.232;2023-02-26T08:57:41;98400.28;;;21.00;28.04
33697;BME280;20031;43.416;23.232;2023-02-26T09:00:07;98394.72;;;21.06;27.69
33697;BME280;20031;43.416;23.232;2023-02-26T09:02:36;98405.03;;;21.13;28.10
33697;BME280;20031;43.416;23.232;2023-02-26T09:05:02;98412.69;;;21.24;28.35
33697;BME280;20031;43.416;23.232;2023-02-26T09:07:28;98402.91;;;21.30;28.27
33697;BME280;20031;43.416;23.232;2023-02-26T09:09:53;98419.59;;;21.45;27.86
33697;BME280;20031;43.416;23.232;2023-02-26T09:12:18;98404.22;;;21.47;27.77
33697;BME280;20031;43.416;23.232;2023-02-26T09:14:44;98409.50;;;21.57;27.24
33697;BME280;20031;43.416;23.232;2023-02-26T09:17:09;98408.97;;;21.65;27.22
33697;BME280;20031;43.416;23.232;2023-02-26T09:19:35;98427.50;;;21.75;27.34
33697;BME280;20031;43.416;23.232;2023-02-26T09:22:00;98418.75;;;21.79;27.43
33697;BME280;20031;43.416;23.232;2023-02-26T09:24:26;98404.41;;;21.85;26.96
33697;BME280;20031;43.416;23.232;2023-02-26T09:26:51;98408.69;;;21.81;27.16
33697;BME280;20031;43.416;23.232;2023-02-26T09:29:17;98407.06;;;21.90;26.96
33697;BME280;20031;43.416;23.232;2023-02-26T09:31:42;98406.16;;;22.09;27.01
33697;BME280;20031;43.416;23.232;2023-02-26T09:34:08;98410.09;;;22.32;27.05
33697;BME280;20031;43.416;23.232;2023-02-26T09:36:33;98406.88;;;22.35;26.58
33697;BME280;20031;43.416;23.232;2023-02-26T09:38:59;98391.72;;;22.40;26.03
33697;BME280;20031;43.416;23.232;2023-02-26T09:41:35;98403.88;;;22.51;26.17
33697;BME280;20031;43.416;23.232;2023-02-26T09:44:10;98400.69;;;22.49;25.78
33697;BME280;20031;43.416;23.232;2023-02-26T09:49:30;98413.75;;;22.41;25.93
33697;BME280;20031;43.416;23.232;2023-02-26T09:52:02;98403.72;;;22.28;25.88
33697;BME280;20031;43.416;23.232;2023-02-26T09:54:32;98405.66;;;22.12;25.86
33697;BME280;20031;43.416;23.232;2023-02-26T09:57:01;98410.69;;;22.14;26.31
33697;BME280;20031;43.416;23.232;2023-02-26T09:59:32;98413.03;;;22.20;26.04
33697;BME280;20031;43.416;23.232;2023-02-26T10:07:56;98415.16;;;22.28;26.55
33697;BME280;20031;43.416;23.232;2023-02-26T10:12:54;98412.00;;;22.11;26.73
33697;BME280;20031;43.416;23.232;2023-02-26T10:15:30;98419.44;;;22.09;26.24
33697;BME280;20031;43.416;23.232;2023-02-26T10:18:04;98411.72;;;22.23;26.64
33697;BME280;20031;43.416;23.232;2023-02-26T10:20:56;98411.41;;;22.29;26.03
33697;BME280;20031;43.416;23.232;2023-02-26T10:23:40;98409.31;;;22.26;26.01
33697;BME280;20031;43.416;23.232;2023-02-26T10:26:26;98416.25;;;22.12;25.85
33697;BME280;20031;43.416;23.232;2023-02-26T10:34:37;98404.41;;;22.53;25.37
33697;BME280;20031;43.416;23.232;2023-02-26T10:37:17;98402.78;;;22.62;25.54
33697;BME280;20031;43.416;23.232;2023-02-26T10:39:57;98404.00;;;22.31;25.81
33697;BME280;20031;43.416;23.232;2023-02-26T10:42:35;98417.81;;;22.18;25.75
33697;BME280;20031;43.416;23.232;2023-02-26T10:50:55;98393.53;;;21.92;25.93
33697;BME280;20031;43.416;23.232;2023-02-26T10:53:23;98400.97;;;21.85;26.45
33697;BME280;20031;43.416;23.232;2023-02-26T10:55:55;98399.38;;;21.89;26.27
33697;BME280;20031;43.416;23.232;2023-02-26T10:58:25;98381.03;;;21.97;26.55
33697;BME280;20031;43.416;23.232;2023-02-26T11:00:53;98383.38;;;22.08;26.71
33697;BME280;20031;43.416;23.232;2023-02-26T11:03:36;98373.53;;;22.14;26.19
33697;BME280;20031;43.416;23.232;2023-02-26T11:06:04;98369.53;;;22.21;26.21
33697;BME280;20031;43.416;23.232;2023-02-26T11:08:43;98363.88;;;22.38;26.38
33697;BME280;20031;43.416;23.232;2023-02-26T11:11:09;98364.28;;;22.59;25.79
33697;BME280;20031;43.416;23.232;2023-02-26T11:13:36;98355.63;;;22.82;25.71
33697;BME280;20031;43.416;23.232;2023-02-26T11:16:14;98355.97;;;23.04;25.80
33697;BME280;20031;43.416;23.232;2023-02-26T11:18:43;98354.94;;;23.33;25.82
33697;BME280;20031;43.416;23.232;2023-02-26T11:21:17;98366.13;;;23.54;24.97
33697;BME280;20031;43.416;23.232;2023-02-26T11:23:44;98385.69;;;23.39;28.43
33697;BME280;20031;43.416;23.232;2023-02-26T11:26:18;98386.06;;;21.99;35.88
33697;BME280;20031;43.416;23.232;2023-02-26T11:28:47;98391.25;;;21.41;38.09
33697;BME280;20031;43.416;23.232;2023-02-26T11:31:16;98393.13;;;21.15;39.44
33697;BME280;20031;43.416;23.232;2023-02-26T11:33:50;98414.03;;;20.72;40.78
33697;BME280;20031;43.416;23.232;2023-02-26T11:36:19;98428.41;;;19.74;43.16
33697;BME280;20031;43.416;23.232;2023-02-26T11:38:57;98428.16;;;19.03;45.68
33697;BME280;20031;43.416;23.232;2023-02-26T11:41:26;98434.44;;;18.71;46.29
33697;BME280;20031;43.416;23.232;2023-02-26T11:44:00;98446.50;;;18.41;47.54
33697;BME280;20031;43.416;23.232;2023-02-26T11:46:27;98439.47;;;18.25;48.26
33697;BME280;20031;43.416;23.232;2023-02-26T11:48:54;98454.97;;;18.22;49.09
33697;BME280;20031;43.416;23.232;2023-02-26T11:51:24;98460.63;;;18.14;50.12
33697;BME280;20031;43.416;23.232;2023-02-26T11:53:53;98470.81;;;18.22;49.89
33697;BME280;20031;43.416;23.232;2023-02-26T11:56:28;98461.38;;;18.26;49.83
33697;BME280;20031;43.416;23.232;2023-02-26T11:58:57;98475.34;;;18.10;50.11
33697;BME280;20031;43.416;23.232;2023-02-26T12:01:27;98481.47;;;17.94;50.12
33697;BME280;20031;43.416;23.232;2023-02-26T12:03:57;98498.81;;;17.57;50.75
33697;BME280;20031;43.416;23.232;2023-02-26T12:06:23;98507.88;;;17.45;51.90
33697;BME280;20031;43.416;23.232;2023-02-26T12:08:49;98512.97;;;17.35;52.79
33697;BME280;20031;43.416;23.232;2023-02-26T12:14:31;98542.28;;;16.99;54.07
33697;BME280;20031;43.416;23.232;2023-02-26T12:17:14;98524.25;;;16.91;54.29
33697;BME280;20031;43.416;23.232;2023-02-26T12:26:35;98551.59;;;16.51;55.51
33697;BME280;20031;43.416;23.232;2023-02-26T12:31:59;98567.06;;;16.14;56.23
33697;BME280;20031;43.416;23.232;2023-02-26T12:43:08;98600.50;;;15.95;57.79
33697;BME280;20031;43.416;23.232;2023-02-26T12:45:51;98604.63;;;16.03;57.58
33697;BME280;20031;43.416;23.232;2023-02-26T12:48:31;98602.34;;;16.06;57.21
33697;BME280;20031;43.416;23.232;2023-02-26T12:56:47;98627.09;;;15.87;57.82
33697;BME280;20031;43.416;23.232;2023-02-26T13:05:26;98622.66;;;15.77;58.81
33697;BME280;20031;43.416;23.232;2023-02-26T13:21:32;98662.91;;;15.30;60.43
33697;BME280;20031;43.416;23.232;2023-02-26T13:24:10;98659.78;;;15.22;60.74
33697;BME280;20031;43.416;23.232;2023-02-26T13:26:37;98668.34;;;15.11;61.19
33697;BME280;20031;43.416;23.232;2023-02-26T13:29:28;98652.94;;;15.03;60.84
33697;BME280;20031;43.416;23.232;2023-02-26T13:32:17;98668.44;;;14.86;61.67
33697;BME280;20031;43.416;23.232;2023-02-26T13:34:59;98663.47;;;14.78;61.60
33697;BME280;20031;43.416;23.232;2023-02-26T13:37:33;98663.91;;;14.76;61.05
33697;BME280;20031;43.416;23.232;2023-02-26T13:43:09;98668.31;;;14.64;61.63
33697;BME280;20031;43.416;23.232;2023-02-26T13:48:32;98679.34;;;14.66;61.56
33697;BME280;20031;43.416;23.232;2023-02-26T13:53:48;98689.84;;;14.66;61.59
33697;BME280;20031;43.416;23.232;2023-02-26T14:04:28;98723.69;;;14.49;62.24
33697;BME280;20031;43.416;23.232;2023-02-26T14:07:12;98718.66;;;14.48;62.44
33697;BME280;20031;43.416;23.232;2023-02-26T14:09:45;98709.72;;;14.55;62.22
33697;BME280;20031;43.416;23.232;2023-02-26T14:20:08;98714.91;;;14.37;62.55
33697;BME280;20031;43.416;23.232;2023-02-26T14:22:41;98714.75;;;14.32;63.01
33697;BME280;20031;43.416;23.232;2023-02-26T14:27:38;98734.16;;;14.25;63.32
33697;BME280;20031;43.416;23.232;2023-02-26T14:32:53;98725.34;;;14.20;62.49
33697;BME280;20031;43.416;23.232;2023-02-26T14:35:24;98746.28;;;14.20;62.14
33697;BME280;20031;43.416;23.232;2023-02-26T14:38:04;98748.38;;;14.11;62.22
33697;BME280;20031;43.416;23.232;2023-02-26T14:40:37;98751.63;;;14.07;61.95
33697;BME280;20031;43.416;23.232;2023-02-26T14:43:05;98743.34;;;14.03;61.90
33697;BME280;20031;43.416;23.232;2023-02-26T14:45:38;98741.56;;;13.97;61.90
33697;BME280;20031;43.416;23.232;2023-02-26T14:48:11;98739.22;;;13.89;62.00
33697;BME280;20031;43.416;23.232;2023-02-26T14:57:18;98767.72;;;13.67;62.13
33697;BME280;20031;43.416;23.232;2023-02-26T15:01:54;98781.50;;;13.49;62.08
33697;BME280;20031;43.416;23.232;2023-02-26T15:16:48;98799.94;;;13.04;63.42
33697;BME280;20031;43.416;23.232;2023-02-26T15:24:14;98810.63;;;12.83;63.87
33697;BME280;20031;43.416;23.232;2023-02-26T15:26:51;98812.41;;;12.76;63.74
33697;BME280;20031;43.416;23.232;2023-02-26T15:29:23;98805.41;;;12.71;63.67
33697;BME280;20031;43.416;23.232;2023-02-26T15:31:59;98814.84;;;12.65;64.13
33697;BME280;20031;43.416;23.232;2023-02-26T15:34:28;98825.69;;;12.62;63.78
33697;BME280;20031;43.416;23.232;2023-02-26T15:36:55;98841.78;;;12.59;63.83